sensor_id;sensor_type;location;lat;lon;timestamp;temperature;humidity
20457;DHT22;10387;51.102;6.848;2023-03-19T00:00:08;11.50;99.90
20457;DHT22;10387;51.102;6.848;2023-03-19T00:02:35;11.50;99.90
20457;DHT22;10387;51.102;6.848;2023-03-19T00:05:01;11.50;99.90
20457;DHT22;10387;51.102;6.848;2023-03-19T00:07:27;11.50;99.90
20457;DHT22;10387;51.102;6.848;2023-03-19T00:09:52;11.50;99.90
20457;DHT22;10387;51.102;6.848;2023-03-19T00:12:18;11.40;99.90
20457;DHT22;10387;51.102;6.848;2023-03-19T00:14:43;11.40;99.90
20457;DHT22;10387;51.102;6.848;2023-03-19T00:17:09;11.30;99.90
20457;DHT22;10387;51.102;6.848;2023-03-19T00:19:35;11.30;99.90
20457;DHT22;10387;51.102;6.848;2023-03-19T00:22:01;11.10;99.90
20457;DHT22;10387;51.102;6.848;2023-03-19T00:24:26;11.00;99.90
20457;DHT22;10387;51.102;6.848;2023-03-19T00:26:53;11.00;99.90
20457;DHT22;10387;51.102;6.848;2023-03-19T00:29:19;10.90;99.90
20457;DHT22;10387;51.102;6.848;2023-03-19T00:31:44;10.80;99.90
20457;DHT22;10387;51.102;6.848;2023-03-19T00:34:10;10.70;99.90
20457;DHT22;10387;51.102;6.848;2023-03-19T00:36:37;10.60;99.90
20457;DHT22;10387;51.102;6.848;2023-03-19T00:39:05;10.50;99.90
20457;DHT22;10387;51.102;6.848;2023-03-19T00:41:32;10.40;99.90
20457;DHT22;10387;51.102;6.848;2023-03-19T00:43:58;10.40;99.90
20457;DHT22;10387;51.102;6.848;2023-03-19T00:46:24;10.30;99.90
20457;DHT22;10387;51.102;6.848;2023-03-19T00:48:50;10.30;99.90
20457;DHT22;10387;51.102;6.848;2023-03-19T00:51:18;10.30;99.90
20457;DHT22;10387;51.102;6.848;2023-03-19T00:53:44;10.30;99.90
20457;DHT22;10387;51.102;6.848;2023-03-19T00:56:10;10.30;99.90
20457;DHT22;10387;51.102;6.848;2023-03-19T00:58:36;10.30;99.90
20457;DHT22;10387;51.102;6.848;2023-03-19T01:01:06;10.20;99.90
20457;DHT22;10387;51.102;6.848;2023-03-19T01:03:32;10.20;99.90
20457;DHT22;10387;51.102;6.848;2023-03-19T01:05:58;10.20;99.90
20457;DHT22;10387;51.102;6.848;2023-03-19T01:08:23;10.10;99.90
20457;DHT22;10387;51.102;6.848;2023-03-19T01:10:49;10.20;99.90
20457;DHT22;10387;51.102;6.848;2023-03-19T01:13:15;10.10;99.90
20457;DHT22;10387;51.102;6.848;2023-03-19T01:15:41;10.10;99.90
20457;DHT22;10387;51.102;6.848;2023-03-19T01:18:08;10.00;99.90
20457;DHT22;10387;51.102;6.848;2023-03-19T01:20:34;10.00;99.90
20457;DHT22;10387;51.102;6.848;2023-03-19T01:23:00;10.00;99.90
20457;DHT22;10387;51.102;6.848;2023-03-19T01:25:26;9.90;99.90
20457;DHT22;10387;51.102;6.848;2023-03-19T01:28:00;9.90;99.90
20457;DHT22;10387;51.102;6.848;2023-03-19T01:30:26;9.80;99.90
20457;DHT22;10387;51.102;6.848;2023-03-19T01:33:14;9.80;99.90
20457;DHT22;10387;51.102;6.848;2023-03-19T01:35:57;9.70;99.90
20457;DHT22;10387;51.102;6.848;2023-03-19T01:38:27;9.80;99.90
20457;DHT22;10387;51.102;6.848;2023-03-19T01:40:58;9.80;99.90
20457;DHT22;10387;51.102;6.848;2023-03-19T01:43:25;9.70;99.90
20457;DHT22;10387;51.102;6.848;2023-03-19T01:46:13;9.60;99.90
20457;DHT22;10387;51.102;6.848;2023-03-19T01:48:41;9.60;99.90
20457;DHT22;10387;51.102;6.848;2023-03-19T01:51:12;9.60;99.90
20457;DHT22;10387;51.102;6.848;2023-03-19T01:53:58;9.60;99.90
20457;DHT22;10387;51.102;6.848;2023-03-19T01:56:33;9.60;99.90
20457;DHT22;10387;51.102;6.848;2023-03-19T01:59:14;9.60;99.90
20457;DHT22;10387;51.102;6.848;2023-03-19T02:02:14;9.70;99.90
20457;DHT22;10387;51.102;6.848;2023-03-19T02:04:42;9.70;99.90
20457;DHT22;10387;51.102;6.848;2023-03-19T02:07:09;9.80;99.90
20457;DHT22;10387;51.102;6.848;2023-03-19T02:09:35;9.90;99.90
20457;DHT22;10387;51.102;6.848;2023-03-19T02:12:01;10.00;99.90
20457;DHT22;10387;51.102;6.848;2023-03-19T02:14:27;10.00;99.90
20457;DHT22;10387;51.102;6.848;2023-03-19T02:16:53;10.10;99.90
20457;DHT22;10387;51.102;6.848;2023-03-19T02:19:21;10.10;99.90
20457;DHT22;10387;51.102;6.848;2023-03-19T02:21:49;10.20;99.90
20457;DHT22;10387;51.102;6.848;2023-03-19T02:24:33;10.20;99.90
20457;DHT22;10387;51.102;6.848;2023-03-19T02:27:04;10.30;99.90
20457;DHT22;10387;51.102;6.848;2023-03-19T02:29:30;10.20;99.90
20457;DHT22;10387;51.102;6.848;2023-03-19T02:31:58;10.20;99.90
20457;DHT22;10387;51.102;6.848;2023-03-19T02:36:51;10.20;99.90
20457;DHT22;10387;51.102;6.848;2023-03-19T02:41:56;10.30;99.90
20457;DHT22;10387;51.102;6.848;2023-03-19T02:44:24;10.30;99.90
20457;DHT22;10387;51.102;6.848;2023-03-19T02:46:50;10.30;99.90
20457;DHT22;10387;51.102;6.848;2023-03-19T02:49:16;10.30;99.90
20457;DHT22;10387;51.102;6.848;2023-03-19T02:51:43;10.30;99.90
20457;DHT22;10387;51.102;6.848;2023-03-19T02:54:09;10.30;99.90
20457;DHT22;10387;51.102;6.848;2023-03-19T02:56:34;10.30;99.90
20457;DHT22;10387;51.102;6.848;2023-03-19T02:59:00;10.30;99.90
20457;DHT22;10387;51.102;6.848;2023-03-19T03:01:26;10.30;99.90
20457;DHT22;10387;51.102;6.848;2023-03-19T03:03:51;10.30;99.90
20457;DHT22;10387;51.102;6.848;2023-03-19T03:06:17;10.30;99.90
20457;DHT22;10387;51.102;6.848;2023-03-19T03:08:43;10.30;99.90
20457;DHT22;10387;51.102;6.848;2023-03-19T03:11:08;10.30;99.90
20457;DHT22;10387;51.102;6.848;2023-03-19T03:13:34;10.30;99.90
20457;DHT22;10387;51.102;6.848;2023-03-19T03:16:00;10.30;99.90
20457;DHT22;10387;51.102;6.848;2023-03-19T03:18:27;10.30;99.90
20457;DHT22;10387;51.102;6.848;2023-03-19T03:20:52;10.30;99.90
20457;DHT22;10387;51.102;6.848;2023-03-19T03:23:18;10.30;99.90
20457;DHT22;10387;51.102;6.848;2023-03-19T03:25:44;10.40;99.90
20457;DHT22;10387;51.102;6.848;2023-03-19T03:28:12;10.40;99.90
20457;DHT22;10387;51.102;6.848;2023-03-19T03:30:38;10.40;99.90
20457;DHT22;10387;51.102;6.848;2023-03-19T03:33:03;10.40;99.90
20457;DHT22;10387;51.102;6.848;2023-03-19T03:35:29;10.40;99.90
20457;DHT22;10387;51.102;6.848;2023-03-19T03:37:55;10.30;99.90
20457;DHT22;10387;51.102;6.848;2023-03-19T03:40:20;10.30;99.90
20457;DHT22;10387;51.102;6.848;2023-03-19T03:42:46;10.30;99.90
20457;DHT22;10387;51.102;6.848;2023-03-19T03:45:13;10.30;99.90
20457;DHT22;10387;51.102;6.848;2023-03-19T03:47:42;10.20;99.90
20457;DHT22;10387;51.102;6.848;2023-03-19T03:50:08;10.20;99.90
20457;DHT22;10387;51.102;6.848;2023-03-19T03:52:36;10.10;99.90
20457;DHT22;10387;51.102;6.848;2023-03-19T03:55:02;10.10;99.90
20457;DHT22;10387;51.102;6.848;2023-03-19T03:57:28;10.00;99.90
20457;DHT22;10387;51.102;6.848;2023-03-19T03:59:55;10.00;99.90
20457;DHT22;10387;51.102;6.848;2023-03-19T04:02:21;10.10;99.90
20457;DHT22;10387;51.102;6.848;2023-03-19T04:04:47;10.10;99.90
20457;DHT22;10387;51.102;6.848;2023-03-19T04:07:13;10.20;99.90
20457;DHT22;10387;51.102;6.848;2023-03-19T04:09:45;10.20;99.90
20457;DHT22;10387;51.102;6.848;2023-03-19T04:12:11;10.30;99.90
20457;DHT22;10387;51.102;6.848;2023-03-19T04:14:37;10.40;99.90
20457;DHT22;10387;51.102;6.848;2023-03-19T04:17:02;10.60;99.90
20457;DHT22;10387;51.102;6.848;2023-03-19T04:19:29;10.60;99.90
20457;DHT22;10387;51.102;6.848;2023-03-19T04:21:56;10.70;99.90
20457;DHT22;10387;51.102;6.848;2023-03-19T04:24:22;10.70;99.90
20457;DHT22;10387;51.102;6.848;2023-03-19T04:26:48;10.70;99.90
20457;DHT22;10387;51.102;6.848;2023-03-19T04:29:15;10.70;99.90
20457;DHT22;10387;51.102;6.848;2023-03-19T04:31:41;10.60;99.90
20457;DHT22;10387;51.102;6.848;2023-03-19T04:34:06;10.50;99.90
20457;DHT22;10387;51.102;6.848;2023-03-19T04:36:32;10.40;99.90
20457;DHT22;10387;51.102;6.848;2023-03-19T04:38:58;10.40;99.90
20457;DHT22;10387;51.102;6.848;2023-03-19T04:41:24;10.40;99.90
20457;DHT22;10387;51.102;6.848;2023-03-19T04:44:10;10.40;99.90
20457;DHT22;10387;51.102;6.848;2023-03-19T04:46:38;10.40;99.90
20457;DHT22;10387;51.102;6.848;2023-03-19T04:49:04;10.40;99.90
20457;DHT22;10387;51.102;6.848;2023-03-19T04:51:30;10.40;99.90
20457;DHT22;10387;51.102;6.848;2023-03-19T04:53:55;10.50;99.90
20457;DHT22;10387;51.102;6.848;2023-03-19T04:56:21;10.50;99.90
20457;DHT22;10387;51.102;6.848;2023-03-19T04:58:47;10.50;99.90
20457;DHT22;10387;51.102;6.848;2023-03-19T05:01:13;10.50;99.90
20457;DHT22;10387;51.102;6.848;2023-03-19T05:03:56;10.70;99.90
20457;DHT22;10387;51.102;6.848;2023-03-19T05:06:22;10.70;99.90
20457;DHT22;10387;51.102;6.848;2023-03-19T05:08:48;10.80;99.90
20457;DHT22;10387;51.102;6.848;2023-03-19T05:11:15;10.90;99.90
20457;DHT22;10387;51.102;6.848;2023-03-19T05:13:55;11.00;99.90
20457;DHT22;10387;51.102;6.848;2023-03-19T05:16:21;11.00;99.90
20457;DHT22;10387;51.102;6.848;2023-03-19T05:18:47;11.10;99.90
20457;DHT22;10387;51.102;6.848;2023-03-19T05:21:13;11.10;99.90
20457;DHT22;10387;51.102;6.848;2023-03-19T05:23:39;11.20;99.90
20457;DHT22;10387;51.102;6.848;2023-03-19T05:26:08;11.20;99.90
20457;DHT22;10387;51.102;6.848;2023-03-19T05:29:12;11.20;99.90
20457;DHT22;10387;51.102;6.848;2023-03-19T05:31:59;11.20;99.90
20457;DHT22;10387;51.102;6.848;2023-03-19T05:34:28;11.10;99.90
20457;DHT22;10387;51.102;6.848;2023-03-19T05:36:54;11.10;99.90
20457;DHT22;10387;51.102;6.848;2023-03-19T05:39:20;11.00;99.90
20457;DHT22;10387;51.102;6.848;2023-03-19T05:41:46;11.00;99.90
20457;DHT22;10387;51.102;6.848;2023-03-19T05:44:16;11.00;99.90
20457;DHT22;10387;51.102;6.848;2023-03-19T05:46:54;10.90;99.90
20457;DHT22;10387;51.102;6.848;2023-03-19T05:49:22;11.00;99.90
20457;DHT22;10387;51.102;6.848;2023-03-19T05:51:47;11.00;99.90
20457;DHT22;10387;51.102;6.848;2023-03-19T05:54:13;10.90;99.90
20457;DHT22;10387;51.102;6.848;2023-03-19T05:56:56;10.90;99.90
20457;DHT22;10387;51.102;6.848;2023-03-19T05:59:36;11.00;99.90
20457;DHT22;10387;51.102;6.848;2023-03-19T06:02:15;11.10;99.90
20457;DHT22;10387;51.102;6.848;2023-03-19T06:04:42;11.10;99.90
20457;DHT22;10387;51.102;6.848;2023-03-19T06:07:08;11.20;99.90
20457;DHT22;10387;51.102;6.848;2023-03-19T06:09:35;11.20;99.90
20457;DHT22;10387;51.102;6.848;2023-03-19T06:12:01;11.20;99.90
20457;DHT22;10387;51.102;6.848;2023-03-19T06:14:51;11.40;99.90
20457;DHT22;10387;51.102;6.848;2023-03-19T06:17:35;11.40;99.90
20457;DHT22;10387;51.102;6.848;2023-03-19T06:20:05;11.40;99.90
20457;DHT22;10387;51.102;6.848;2023-03-19T06:22:31;11.30;99.90
20457;DHT22;10387;51.102;6.848;2023-03-19T06:24:56;11.30;99.90
20457;DHT22;10387;51.102;6.848;2023-03-19T06:27:22;11.30;99.90
20457;DHT22;10387;51.102;6.848;2023-03-19T06:29:49;11.20;99.90
20457;DHT22;10387;51.102;6.848;2023-03-19T06:32:20;11.10;99.90
20457;DHT22;10387;51.102;6.848;2023-03-19T06:34:47;11.10;99.90
20457;DHT22;10387;51.102;6.848;2023-03-19T06:37:13;11.10;99.90
20457;DHT22;10387;51.102;6.848;2023-03-19T06:39:40;11.10;99.90
20457;DHT22;10387;51.102;6.848;2023-03-19T06:42:05;11.10;99.90
20457;DHT22;10387;51.102;6.848;2023-03-19T06:44:32;11.20;99.90
20457;DHT22;10387;51.102;6.848;2023-03-19T06:46:57;11.20;99.90
20457;DHT22;10387;51.102;6.848;2023-03-19T06:49:23;11.30;99.90
20457;DHT22;10387;51.102;6.848;2023-03-19T06:51:49;11.20;99.90
20457;DHT22;10387;51.102;6.848;2023-03-19T06:54:15;11.20;99.90
20457;DHT22;10387;51.102;6.848;2023-03-19T06:56:41;11.20;99.90
20457;DHT22;10387;51.102;6.848;2023-03-19T06:59:07;11.20;99.90
20457;DHT22;10387;51.102;6.848;2023-03-19T07:01:33;11.20;99.90
20457;DHT22;10387;51.102;6.848;2023-03-19T07:03:58;11.20;99.90
20457;DHT22;10387;51.102;6.848;2023-03-19T07:06:24;11.30;99.90
20457;DHT22;10387;51.102;6.848;2023-03-19T07:08:49;11.40;99.90
20457;DHT22;10387;51.102;6.848;2023-03-19T07:11:15;11.50;99.90
20457;DHT22;10387;51.102;6.848;2023-03-19T07:13:41;11.60;99.90
20457;DHT22;10387;51.102;6.848;2023-03-19T07:16:07;11.70;99.90
20457;DHT22;10387;51.102;6.848;2023-03-19T07:18:33;11.70;99.90
20457;DHT22;10387;51.102;6.848;2023-03-19T07:20:58;11.70;99.90
20457;DHT22;10387;51.102;6.848;2023-03-19T07:23:24;11.70;99.90
20457;DHT22;10387;51.102;6.848;2023-03-19T07:25:49;11.80;99.90
20457;DHT22;10387;51.102;6.848;2023-03-19T07:28:15;11.70;99.90
20457;DHT22;10387;51.102;6.848;2023-03-19T07:30:41;11.70;99.90
20457;DHT22;10387;51.102;6.848;2023-03-19T07:33:06;11.70;99.90
20457;DHT22;10387;51.102;6.848;2023-03-19T07:35:33;11.70;99.90
20457;DHT22;10387;51.102;6.848;2023-03-19T07:37:58;11.80;99.90
20457;DHT22;10387;51.102;6.848;2023-03-19T07:40:25;11.90;99.90
20457;DHT22;10387;51.102;6.848;2023-03-19T07:42:50;11.90;99.90
20457;DHT22;10387;51.102;6.848;2023-03-19T07:45:16;12.00;99.90
20457;DHT22;10387;51.102;6.848;2023-03-19T07:47:41;12.10;99.90
20457;DHT22;10387;51.102;6.848;2023-03-19T07:50:07;12.00;99.90
20457;DHT22;10387;51.102;6.848;2023-03-19T07:52:33;12.00;99.90
20457;DHT22;10387;51.102;6.848;2023-03-19T07:54:59;12.10;99.90
20457;DHT22;10387;51.102;6.848;2023-03-19T07:57:25;12.20;99.90
20457;DHT22;10387;51.102;6.848;2023-03-19T07:59:50;12.20;99.90
20457;DHT22;10387;51.102;6.848;2023-03-19T08:02:16;12.20;99.90
20457;DHT22;10387;51.102;6.848;2023-03-19T08:04:42;12.20;99.90
20457;DHT22;10387;51.102;6.848;2023-03-19T08:07:08;12.20;99.90
20457;DHT22;10387;51.102;6.848;2023-03-19T08:09:35;12.40;99.90
20457;DHT22;10387;51.102;6.848;2023-03-19T08:12:01;12.50;99.90
20457;DHT22;10387;51.102;6.848;2023-03-19T08:14:27;12.70;99.90
20457;DHT22;10387;51.102;6.848;2023-03-19T08:16:53;12.80;99.90
20457;DHT22;10387;51.102;6.848;2023-03-19T08:19:18;13.10;99.90
20457;DHT22;10387;51.102;6.848;2023-03-19T08:21:45;13.20;99.90
20457;DHT22;10387;51.102;6.848;2023-03-19T08:24:10;13.40;99.90
20457;DHT22;10387;51.102;6.848;2023-03-19T08:26:36;13.50;99.90
20457;DHT22;10387;51.102;6.848;2023-03-19T08:29:02;13.60;99.90
20457;DHT22;10387;51.102;6.848;2023-03-19T08:31:28;13.70;99.90
20457;DHT22;10387;51.102;6.848;2023-03-19T08:33:54;13.70;99.90
20457;DHT22;10387;51.102;6.848;2023-03-19T08:36:20;13.70;99.90
20457;DHT22;10387;51.102;6.848;2023-03-19T08:38:46;13.80;99.90
20457;DHT22;10387;51.102;6.848;2023-03-19T08:41:12;13.80;99.90
20457;DHT22;10387;51.102;6.848;2023-03-19T08:43:37;13.70;99.90
20457;DHT22;10387;51.102;6.848;2023-03-19T08:46:03;13.60;99.90
20457;DHT22;10387;51.102;6.848;2023-03-19T08:48:29;13.60;99.90
20457;DHT22;10387;51.102;6.848;2023-03-19T08:50:56;13.80;99.90
20457;DHT22;10387;51.102;6.848;2023-03-19T08:53:22;14.00;99.90
20457;DHT22;10387;51.102;6.848;2023-03-19T08:55:52;14.10;99.90
20457;DHT22;10387;51.102;6.848;2023-03-19T08:58:18;14.20;99.90
20457;DHT22;10387;51.102;6.848;2023-03-19T09:00:43;14.20;99.90
20457;DHT22;10387;51.102;6.848;2023-03-19T09:03:09;14.30;99.90
20457;DHT22;10387;51.102;6.848;2023-03-19T09:05:34;14.40;99.90
20457;DHT22;10387;51.102;6.848;2023-03-19T09:08:00;14.50;99.90
20457;DHT22;10387;51.102;6.848;2023-03-19T09:10:26;14.70;99.90
20457;DHT22;10387;51.102;6.848;2023-03-19T09:12:52;14.90;99.90
20457;DHT22;10387;51.102;6.848;2023-03-19T09:15:17;15.10;99.90
20457;DHT22;10387;51.102;6.848;2023-03-19T09:17:43;15.30;99.90
20457;DHT22;10387;51.102;6.848;2023-03-19T09:20:09;15.40;99.90
20457;DHT22;10387;51.102;6.848;2023-03-19T09:22:34;15.60;99.90
20457;DHT22;10387;51.102;6.848;2023-03-19T09:25:00;15.70;99.90
20457;DHT22;10387;51.102;6.848;2023-03-19T09:27:25;15.80;99.90
20457;DHT22;10387;51.102;6.848;2023-03-19T09:29:51;15.90;99.90
20457;DHT22;10387;51.102;6.848;2023-03-19T09:32:17;15.80;99.90
20457;DHT22;10387;51.102;6.848;2023-03-19T09:34:43;15.80;99.90
20457;DHT22;10387;51.102;6.848;2023-03-19T09:37:09;15.70;99.90
20457;DHT22;10387;51.102;6.848;2023-03-19T09:39:36;15.70;99.90
20457;DHT22;10387;51.102;6.848;2023-03-19T09:44:29;15.90;99.90
20457;DHT22;10387;51.102;6.848;2023-03-19T09:47:19;16.10;99.90
20457;DHT22;10387;51.102;6.848;2023-03-19T09:49:48;16.20;99.90
20457;DHT22;10387;51.102;6.848;2023-03-19T09:55:04;16.00;99.90
20457;DHT22;10387;51.102;6.848;2023-03-19T09:57:31;16.00;99.90
20457;DHT22;10387;51.102;6.848;2023-03-19T09:59:58;16.00;99.90
20457;DHT22;10387;51.102;6.848;2023-03-19T10:09:54;16.30;99.90
20457;DHT22;10387;51.102;6.848;2023-03-19T10:12:25;16.20;99.90
20457;DHT22;10387;51.102;6.848;2023-03-19T10:15:30;16.00;99.90
20457;DHT22;10387;51.102;6.848;2023-03-19T10:17:51;15.70;99.90
20457;DHT22;10387;51.102;6.848;2023-03-19T10:21:02;15.80;99.90
20457;DHT22;10387;51.102;6.848;2023-03-19T10:25:33;15.80;99.90
20457;DHT22;10387;51.102;6.848;2023-03-19T10:28:15;15.80;99.90
20457;DHT22;10387;51.102;6.848;2023-03-19T10:30:41;15.50;99.90
20457;DHT22;10387;51.102;6.848;2023-03-19T10:33:13;15.10;99.90
20457;DHT22;10387;51.102;6.848;2023-03-19T10:35:45;14.80;99.90
20457;DHT22;10387;51.102;6.848;2023-03-19T10:38:20;14.80;99.90
20457;DHT22;10387;51.102;6.848;2023-03-19T10:43:31;14.70;99.90
20457;DHT22;10387;51.102;6.848;2023-03-19T10:45:56;14.70;99.90
20457;DHT22;10387;51.102;6.848;2023-03-19T10:48:24;14.60;99.90
20457;DHT22;10387;51.102;6.848;2023-03-19T10:50:57;14.50;99.90
20457;DHT22;10387;51.102;6.848;2023-03-19T10:53:27;14.40;99.90
20457;DHT22;10387;51.102;6.848;2023-03-19T10:56:02;14.20;99.90
20457;DHT22;10387;51.102;6.848;2023-03-19T10:58:28;14.20;99.90
20457;DHT22;10387;51.102;6.848;2023-03-19T11:01:02;14.10;99.90
20457;DHT22;10387;51.102;6.848;2023-03-19T11:03:29;14.20;99.90
20457;DHT22;10387;51.102;6.848;2023-03-19T11:08:28;14.50;99.90
20457;DHT22;10387;51.102;6.848;2023-03-19T11:10:53;14.60;99.90
20457;DHT22;10387;51.102;6.848;2023-03-19T11:13:23;14.80;99.90
20457;DHT22;10387;51.102;6.848;2023-03-19T11:15:50;15.10;99.90
20457;DHT22;10387;51.102;6.848;2023-03-19T11:18:23;15.30;99.90
20457;DHT22;10387;51.102;6.848;2023-03-19T11:20:59;15.60;99.90
20457;DHT22;10387;51.102;6.848;2023-03-19T11:23:27;15.90;99.90
20457;DHT22;10387;51.102;6.848;2023-03-19T11:25:54;16.00;99.90
20457;DHT22;10387;51.102;6.848;2023-03-19T11:28:23;15.80;99.90
20457;DHT22;10387;51.102;6.848;2023-03-19T11:31:14;15.80;99.90
20457;DHT22;10387;51.102;6.848;2023-03-19T11:36:08;15.30;99.90
20457;DHT22;10387;51.102;6.848;2023-03-19T11:41:10;14.90;99.90
20457;DHT22;10387;51.102;6.848;2023-03-19T11:51:49;14.60;99.90
20457;DHT22;10387;51.102;6.848;2023-03-19T11:59:28;15.50;99.90
20457;DHT22;10387;51.102;6.848;2023-03-19T12:02:06;15.70;99.90
20457;DHT22;10387;51.102;6.848;2023-03-19T12:12:37;15.90;99.90
20457;DHT22;10387;51.102;6.848;2023-03-19T12:20:02;16.40;99.90
20457;DHT22;10387;51.102;6.848;2023-03-19T12:22:34;16.70;99.90
20457;DHT22;10387;51.102;6.848;2023-03-19T12:30:40;17.00;99.90
20457;DHT22;10387;51.102;6.848;2023-03-19T12:35:52;17.80;99.90
20457;DHT22;10387;51.102;6.848;2023-03-19T12:38:21;18.10;99.90
20457;DHT22;10387;51.102;6.848;2023-03-19T12:41:22;18.00;99.90
20457;DHT22;10387;51.102;6.848;2023-03-19T12:46:17;17.70;99.90
20457;DHT22;10387;51.102;6.848;2023-03-19T12:51:11;16.80;99.90
20457;DHT22;10387;51.102;6.848;2023-03-19T12:56:51;15.50;99.90
20457;DHT22;10387;51.102;6.848;2023-03-19T13:01:50;14.80;99.90
20457;DHT22;10387;51.102;6.848;2023-03-19T13:06:46;14.40;99.90
20457;DHT22;10387;51.102;6.848;2023-03-19T13:11:59;14.00;99.90
20457;DHT22;10387;51.102;6.848;2023-03-19T13:14:28;13.90;99.90
20457;DHT22;10387;51.102;6.848;2023-03-19T13:22:08;13.70;99.90
20457;DHT22;10387;51.102;6.848;2023-03-19T13:24:38;13.70;99.90
20457;DHT22;10387;51.102;6.848;2023-03-19T13:27:05;13.80;99.90
20457;DHT22;10387;51.102;6.848;2023-03-19T13:29:32;14.00;99.90
20457;DHT22;10387;51.102;6.848;2023-03-19T13:31:59;14.20;99.90
20457;DHT22;10387;51.102;6.848;2023-03-19T13:34:26;14.30;99.90
20457;DHT22;10387;51.102;6.848;2023-03-19T13:37:00;14.40;99.90
20457;DHT22;10387;51.102;6.848;2023-03-19T13:39:27;14.50;99.90
20457;DHT22;10387;51.102;6.848;2023-03-19T13:42:05;14.70;99.90
20457;DHT22;10387;51.102;6.848;2023-03-19T13:44:34;14.90;99.90
20457;DHT22;10387;51.102;6.848;2023-03-19T13:54:59;15.40;99.90
20457;DHT22;10387;51.102;6.848;2023-03-19T13:57:43;15.40;99.90
20457;DHT22;10387;51.102;6.848;2023-03-19T14:03:26;15.50;99.90
20457;DHT22;10387;51.102;6.848;2023-03-19T14:05:54;15.50;99.90
20457;DHT22;10387;51.102;6.848;2023-03-19T14:08:25;15.70;99.90
20457;DHT22;10387;51.102;6.848;2023-03-19T14:10:52;15.80;99.90
20457;DHT22;10387;51.102;6.848;2023-03-19T14:13:31;15.80;99.90
20457;DHT22;10387;51.102;6.848;2023-03-19T14:16:06;15.70;99.90
20457;DHT22;10387;51.102;6.848;2023-03-19T14:18:37;15.70;99.90
20457;DHT22;10387;51.102;6.848;2023-03-19T14:21:04;15.60;99.90
20457;DHT22;10387;51.102;6.848;2023-03-19T14:23:30;15.60;99.90
20457;DHT22;10387;51.102;6.848;2023-03-19T14:26:16;15.60;99.90
20457;DHT22;10387;51.102;6.848;2023-03-19T14:33:43;15.20;99.90
20457;DHT22;10387;51.102;6.848;2023-03-19T14:36:11;15.10;99.90
20457;DHT22;10387;51.102;6.848;2023-03-19T14:38:51;14.90;99.90
20457;DHT22;10387;51.102;6.848;2023-03-19T14:41:20;14.80;99.90
20457;DHT22;10387;51.102;6.848;2023-03-19T14:46:44;14.80;99.90
20457;DHT22;10387;51.102;6.848;2023-03-19T14:54:24;14.60;99.90
20457;DHT22;10387;51.102;6.848;2023-03-19T14:56:51;14.60;99.90
20457;DHT22;10387;51.102;6.848;2023-03-19T14:59:16;14.40;99.90
20457;DHT22;10387;51.102;6.848;2023-03-19T15:01:48;14.30;99.90
20457;DHT22;10387;51.102;6.848;2023-03-19T15:04:14;14.20;99.90
20457;DHT22;10387;51.102;6.848;2023-03-19T15:06:43;14.20;99.90
20457;DHT22;10387;51.102;6.848;2023-03-19T15:09:18;14.10;99.90
20457;DHT22;10387;51.102;6.848;2023-03-19T15:17:00;13.90;99.90
20457;DHT22;10387;51.102;6.848;2023-03-19T15:19:28;13.80;99.90
20457;DHT22;10387;51.102;6.848;2023-03-19T15:22:02;13.70;99.90
20457;DHT22;10387;51.102;6.848;2023-03-19T15:24:28;13.60;99.90
20457;DHT22;10387;51.102;6.848;2023-03-19T15:26:56;13.70;99.90
20457;DHT22;10387;51.102;6.848;2023-03-19T15:29:31;13.60;99.90
20457;DHT22;10387;51.102;6.848;2023-03-19T15:31:57;13.40;99.90
20457;DHT22;10387;51.102;6.848;2023-03-19T15:34:23;13.30;99.90
20457;DHT22;10387;51.102;6.848;2023-03-19T15:36:51;13.40;99.90
20457;DHT22;10387;51.102;6.848;2023-03-19T15:39:17;13.60;99.90
20457;DHT22;10387;51.102;6.848;2023-03-19T15:41:45;13.70;99.90
20457;DHT22;10387;51.102;6.848;2023-03-19T15:44:19;13.60;99.90
20457;DHT22;10387;51.102;6.848;2023-03-19T15:46:46;13.50;99.90
20457;DHT22;10387;51.102;6.848;2023-03-19T15:49:14;13.60;99.90
20457;DHT22;10387;51.102;6.848;2023-03-19T15:51:41;13.60;99.90
20457;DHT22;10387;51.102;6.848;2023-03-19T15:54:07;13.70;99.90
20457;DHT22;10387;51.102;6.848;2023-03-19T15:56:33;13.80;99.90
20457;DHT22;10387;51.102;6.848;2023-03-19T15:58:59;13.90;99.90
20457;DHT22;10387;51.102;6.848;2023-03-19T16:01:25;14.20;99.90
20457;DHT22;10387;51.102;6.848;2023-03-19T16:03:58;14.10;99.90
20457;DHT22;10387;51.102;6.848;2023-03-19T16:06:28;14.00;99.90
20457;DHT22;10387;51.102;6.848;2023-03-19T16:09:05;13.90;99.90
20457;DHT22;10387;51.102;6.848;2023-03-19T16:11:34;13.70;99.90
20457;DHT22;10387;51.102;6.848;2023-03-19T16:14:01;13.50;99.90
20457;DHT22;10387;51.102;6.848;2023-03-19T16:16:33;13.30;99.90
20457;DHT22;10387;51.102;6.848;2023-03-19T16:18:59;13.20;99.90
20457;DHT22;10387;51.102;6.848;2023-03-19T16:21:38;13.20;99.90
20457;DHT22;10387;51.102;6.848;2023-03-19T16:24:12;13.10;99.90
20457;DHT22;10387;51.102;6.848;2023-03-19T16:26:39;13.00;99.90
20457;DHT22;10387;51.102;6.848;2023-03-19T16:29:14;12.90;99.90
20457;DHT22;10387;51.102;6.848;2023-03-19T16:31:43;12.80;99.90
20457;DHT22;10387;51.102;6.848;2023-03-19T16:36:54;12.90;99.90
20457;DHT22;10387;51.102;6.848;2023-03-19T16:39:30;13.20;99.90
20457;DHT22;10387;51.102;6.848;2023-03-19T16:44:39;14.00;99.90
20457;DHT22;10387;51.102;6.848;2023-03-19T16:49:30;15.70;99.90
20457;DHT22;10387;51.102;6.848;2023-03-19T16:51:56;16.30;99.90
20457;DHT22;10387;51.102;6.848;2023-03-19T16:54:21;16.40;99.90
20457;DHT22;10387;51.102;6.848;2023-03-19T16:56:48;16.40;99.90
20457;DHT22;10387;51.102;6.848;2023-03-19T16:59:17;16.30;99.90
20457;DHT22;10387;51.102;6.848;2023-03-19T17:01:44;16.40;99.90
20457;DHT22;10387;51.102;6.848;2023-03-19T17:04:11;16.00;99.90
20457;DHT22;10387;51.102;6.848;2023-03-19T17:06:42;15.60;99.90
20457;DHT22;10387;51.102;6.848;2023-03-19T17:09:07;15.00;99.90
20457;DHT22;10387;51.102;6.848;2023-03-19T17:11:34;14.40;99.90
20457;DHT22;10387;51.102;6.848;2023-03-19T17:14:02;13.90;99.90
20457;DHT22;10387;51.102;6.848;2023-03-19T17:16:29;13.50;99.90
20457;DHT22;10387;51.102;6.848;2023-03-19T17:18:55;13.50;99.90
20457;DHT22;10387;51.102;6.848;2023-03-19T17:21:27;13.30;99.90
20457;DHT22;10387;51.102;6.848;2023-03-19T17:23:55;13.10;99.90
20457;DHT22;10387;51.102;6.848;2023-03-19T17:26:22;12.80;99.90
20457;DHT22;10387;51.102;6.848;2023-03-19T17:28:50;12.60;99.90
20457;DHT22;10387;51.102;6.848;2023-03-19T17:31:30;12.50;99.90
20457;DHT22;10387;51.102;6.848;2023-03-19T17:34:09;12.40;99.90
20457;DHT22;10387;51.102;6.848;2023-03-19T17:36:35;12.20;99.90
20457;DHT22;10387;51.102;6.848;2023-03-19T17:39:02;12.10;99.90
20457;DHT22;10387;51.102;6.848;2023-03-19T17:41:28;12.20;99.90
20457;DHT22;10387;51.102;6.848;2023-03-19T17:43:54;12.10;99.90